Spar Corvus — LAKK7 — position and weather

sailwx.info

Track history (hours):
 
Tides and Currents Weather Stations Pressure Air Temp Water Temp Dewpoint Dewpoint Depression Visibility Wind Speed Wind Dir Waves Ship Positions

Spar Corvus

Last reported at 2017-Nov-17 18:38 UTC. Time now 2017-Dec-17 17:29 UTC.
Position N 35°37' E 014°30'.
Warning: this ship's position is 29 days out of date.

Length 190 m; draft 12.3 m.

Type: Cargo ship. MMSI: 259093000.

Date/timePositionNaut miles runAvg speedWind from/ knotsBaromVisibWave heightAir tempDewpointWater temp
2017-Nov-17 18:38N 35°37' E 014°30'211.4
2017-Nov-17 18:30N 35°37' E 014°28'611.2
2017-Nov-17 18:00N 35°40' E 014°22'611.1
2017-Nov-17 17:30N 35°43' E 014°16'611.1
2017-Nov-17 16:59N 35°46' E 014°10'611.1
2017-Nov-17 16:30N 35°50' E 014°05'611.1
2017-Nov-17 15:59N 35°53' E 013°59'511.2
2017-Nov-17 15:30N 35°56' E 013°54'611.3
2017-Nov-17 15:00N 35°59' E 013°48'1011.2
2017-Nov-17 14:07N 36°04' E 013°37'  
2017-Nov-14 03:44N 35°60' W 005°06'413.9
2017-Nov-14 03:28N 35°60' W 005°10'613.4
2017-Nov-14 03:00N 35°60' W 005°18'714.7
2017-Nov-14 02:30N 35°58' W 005°27'  
Track history (hours):
 
Tides and Currents Weather Stations Pressure Air Temp Water Temp Dewpoint Dewpoint Depression Visibility Wind Speed Wind Dir Waves Ship Positions

Spar Corvus

Last reported at 2017-Nov-17 18:38 UTC. Time now 2017-Dec-17 17:29 UTC.
Position N 35°37' E 014°30'.
Warning: this ship's position is 29 days out of date.

Length 190 m; draft 12.3 m.

Type: Cargo ship. MMSI: 259093000.

Date/timePositionNaut miles runAvg speedWind from/ knotsBaromVisibWave heightAir tempDewpointWater temp
2017-Nov-17 18:38N 35°37' E 014°30'211.4
2017-Nov-17 18:30N 35°37' E 014°28'611.2
2017-Nov-17 18:00N 35°40' E 014°22'611.1
2017-Nov-17 17:30N 35°43' E 014°16'611.1
2017-Nov-17 16:59N 35°46' E 014°10'611.1
2017-Nov-17 16:30N 35°50' E 014°05'611.1
2017-Nov-17 15:59N 35°53' E 013°59'511.2
2017-Nov-17 15:30N 35°56' E 013°54'611.3
2017-Nov-17 15:00N 35°59' E 013°48'1011.2
2017-Nov-17 14:07N 36°04' E 013°37'  
2017-Nov-14 03:44N 35°60' W 005°06'413.9
2017-Nov-14 03:28N 35°60' W 005°10'613.4
2017-Nov-14 03:00N 35°60' W 005°18'714.7
2017-Nov-14 02:30N 35°58' W 005°27'  

Dump ship's entire track history